createdAt,value
2019-06-15T00:03:56.716Z,94.30
2019-06-15T00:08:05.989Z,94.50
2019-06-15T00:12:14.947Z,94.50
2019-06-15T00:16:23.822Z,94.50
2019-06-15T00:20:33.105Z,94.70
2019-06-15T00:24:41.965Z,94.70
2019-06-15T00:28:50.813Z,94.80
2019-06-15T00:32:59.693Z,94.90
2019-06-15T00:37:08.927Z,94.80
2019-06-15T00:41:17.869Z,95.20
2019-06-15T00:45:26.895Z,95.10
2019-06-15T00:49:36.069Z,94.90
2019-06-15T00:53:44.900Z,94.90
2019-06-15T00:57:53.915Z,95.10
2019-06-15T01:02:03.260Z,95.30
2019-06-15T01:06:12.276Z,95.30
2019-06-15T01:10:27.247Z,95.20
2019-06-15T01:14:36.065Z,95.10
2019-06-15T01:18:44.879Z,95.00
2019-06-15T01:22:53.977Z,95.10
2019-06-15T01:27:02.835Z,95.10
2019-06-15T01:31:11.705Z,95.10
2019-06-15T01:35:20.715Z,95.10
2019-06-15T01:39:29.515Z,95.20
2019-06-15T01:43:38.341Z,95.20
2019-06-15T01:47:47.164Z,95.00
2019-06-15T01:51:56.358Z,95.10
2019-06-15T01:56:05.301Z,95.10
2019-06-15T02:00:20.799Z,95.20
2019-06-15T02:04:29.615Z,95.20
2019-06-15T02:08:38.628Z,95.30
2019-06-15T02:12:47.439Z,95.70
2019-06-15T02:16:56.337Z,96.00
2019-06-15T02:21:05.919Z,95.80
2019-06-15T02:25:34.855Z,96.00
2019-06-15T02:29:32.528Z,96.30
2019-06-15T02:33:41.394Z,96.40
2019-06-15T02:37:50.215Z,96.20
2019-06-15T02:41:59.138Z,96.20
2019-06-15T02:46:08.098Z,96.60
2019-06-15T02:50:17.464Z,96.90
2019-06-15T02:54:26.280Z,96.50
2019-06-15T02:58:35.092Z,96.80
2019-06-15T03:02:44.064Z,97.00
2019-06-15T03:06:53.217Z,96.90
2019-06-15T03:11:02.400Z,96.70
2019-06-15T03:15:11.452Z,96.40
2019-06-15T03:19:20.260Z,96.50
2019-06-15T03:23:29.084Z,96.40
2019-06-15T03:27:37.864Z,96.30
2019-06-15T03:31:46.762Z,96.10
2019-06-15T03:35:55.640Z,96.10
2019-06-15T03:40:05.405Z,95.90
2019-06-15T03:44:14.213Z,95.80
2019-06-15T03:48:23.102Z,95.80
2019-06-15T03:52:32.018Z,95.90
2019-06-15T03:56:40.960Z,95.90
2019-06-15T04:00:56.027Z,96.00
2019-06-15T04:05:05.085Z,96.20
2019-06-15T04:09:13.971Z,96.60
2019-06-15T04:13:22.862Z,96.60
2019-06-15T04:17:31.676Z,96.80
2019-06-15T04:21:40.492Z,96.70
2019-06-15T04:25:49.421Z,96.70
2019-06-15T04:29:58.268Z,96.80
2019-06-15T04:34:07.358Z,96.60
2019-06-15T04:38:16.252Z,96.60
2019-06-15T04:42:25.171Z,96.20
2019-06-15T04:46:34.232Z,96.00
2019-06-15T04:50:43.218Z,95.70
2019-06-15T04:54:52.103Z,95.50
2019-06-15T04:59:00.904Z,95.30
2019-06-15T05:03:09.707Z,95.20
2019-06-15T05:07:18.787Z,95.10
2019-06-15T05:11:31.492Z,95.10
2019-06-15T05:15:40.850Z,95.00
2019-06-15T05:19:49.766Z,95.10
2019-06-15T05:23:58.561Z,95.10
2019-06-15T05:28:07.388Z,94.60
2019-06-15T05:32:16.209Z,93.80
2019-06-15T05:36:25.014Z,93.90
2019-06-15T05:40:33.932Z,94.00
2019-06-15T05:44:42.725Z,94.10
2019-06-15T05:48:51.559Z,93.60
2019-06-15T05:53:00.575Z,92.90
2019-06-15T05:57:20.900Z,92.30
2019-06-15T06:01:20.038Z,91.50
2019-06-15T06:05:28.869Z,90.60
2019-06-15T06:09:38.010Z,90.20
2019-06-15T06:13:46.888Z,90.10
2019-06-15T06:17:56.225Z,90.00
2019-06-15T06:22:05.352Z,90.10
2019-06-15T06:26:14.302Z,90.00
2019-06-15T06:30:23.285Z,89.00
2019-06-15T06:34:32.166Z,89.20
2019-06-15T06:38:41.116Z,88.40
2019-06-15T06:42:50.136Z,88.20
2019-06-15T06:46:59.222Z,89.00
2019-06-15T06:51:08.109Z,87.40
2019-06-15T06:55:17.505Z,85.40
2019-06-15T06:59:26.505Z,83.80
2019-06-15T07:03:35.531Z,82.10
2019-06-15T07:07:44.697Z,79.00
2019-06-15T07:11:53.572Z,78.90
2019-06-15T07:16:02.461Z,78.20
2019-06-15T07:20:11.504Z,77.50
2019-06-15T07:24:20.552Z,76.30
2019-06-15T07:28:29.358Z,75.30
2019-06-15T07:32:38.263Z,74.50
2019-06-15T07:36:47.117Z,72.00
2019-06-15T07:40:56.367Z,72.50
2019-06-15T07:45:05.724Z,72.60
2019-06-15T07:49:14.968Z,71.20
2019-06-15T07:53:23.901Z,71.60
2019-06-15T07:57:32.863Z,71.30
2019-06-15T08:01:41.759Z,68.60
2019-06-15T08:05:50.675Z,69.40
2019-06-15T08:09:59.525Z,67.20
2019-06-15T08:14:08.543Z,68.50
2019-06-15T08:18:17.429Z,67.70
2019-06-15T08:22:26.248Z,65.40
2019-06-15T08:26:35.152Z,65.30
2019-06-15T08:30:44.427Z,64.70
2019-06-15T08:34:53.259Z,64.10
2019-06-15T08:39:02.124Z,64.30
2019-06-15T08:43:11.122Z,62.40
2019-06-15T08:47:19.965Z,61.50
2019-06-15T08:51:28.918Z,62.20
2019-06-15T08:55:37.832Z,61.80
2019-06-15T08:59:46.710Z,59.90
2019-06-15T09:03:55.606Z,60.10
2019-06-15T09:08:04.625Z,60.00
2019-06-15T09:12:14.056Z,59.50
2019-06-15T09:16:25.660Z,59.70
2019-06-15T09:20:33.601Z,61.70
2019-06-15T09:24:42.616Z,62.70
2019-06-15T09:28:52.052Z,63.90
2019-06-15T09:33:00.930Z,63.60
2019-06-15T09:37:09.766Z,63.70
2019-06-15T09:41:18.680Z,61.80
2019-06-15T09:45:27.690Z,58.90
2019-06-15T09:49:36.601Z,59.30
2019-06-15T09:53:45.569Z,61.10
2019-06-15T09:57:54.402Z,61.40
2019-06-15T10:02:03.325Z,61.90
2019-06-15T10:06:12.145Z,62.90
2019-06-15T10:10:21.044Z,63.30
2019-06-15T10:14:29.869Z,65.10
2019-06-15T10:18:39.043Z,66.30
2019-06-15T10:22:48.057Z,68.40
2019-06-15T10:26:57.045Z,70.20
2019-06-15T10:31:05.948Z,70.00
2019-06-15T10:35:15.846Z,65.20
2019-06-15T10:39:24.652Z,62.40
2019-06-15T10:43:33.564Z,60.50
2019-06-15T10:47:42.551Z,58.20
2019-06-15T10:51:51.748Z,59.40
2019-06-15T10:56:00.559Z,59.40
2019-06-15T11:00:09.943Z,58.90
2019-06-15T11:04:18.837Z,58.30
2019-06-15T11:08:28.057Z,57.90
2019-06-15T11:12:45.828Z,56.30
2019-06-15T11:16:47.654Z,57.20
2019-06-15T11:20:58.888Z,56.80
2019-06-15T11:25:07.481Z,55.30
2019-06-15T11:29:16.331Z,53.00
2019-06-15T11:33:25.419Z,53.00
2019-06-15T11:37:34.314Z,51.90
2019-06-15T11:41:43.284Z,50.80
2019-06-15T11:45:52.576Z,49.80
2019-06-15T11:50:01.743Z,49.60
2019-06-15T11:54:10.937Z,47.40
2019-06-15T11:58:19.765Z,48.00
2019-06-15T12:02:28.584Z,46.50
2019-06-15T12:06:37.417Z,45.90
2019-06-15T12:10:46.435Z,44.90
2019-06-15T12:14:55.327Z,43.50
2019-06-15T12:19:04.268Z,43.40
2019-06-15T12:23:13.396Z,41.00
2019-06-15T12:27:22.500Z,39.60
2019-06-15T12:31:31.352Z,41.00
2019-06-15T12:35:40.239Z,41.00
2019-06-15T12:39:49.070Z,42.90
2019-06-15T12:43:58.167Z,41.50
2019-06-15T12:48:07.168Z,42.10
2019-06-15T12:52:16.308Z,41.50
2019-06-15T12:56:25.161Z,41.90
2019-06-15T13:00:37.353Z,42.10
2019-06-15T13:04:46.172Z,41.20
2019-06-15T13:08:54.981Z,40.70
2019-06-15T13:13:03.821Z,39.90
2019-06-15T13:17:12.738Z,39.70
2019-06-15T13:21:21.540Z,38.10
2019-06-15T13:25:30.400Z,38.70
2019-06-15T13:29:39.210Z,38.50
2019-06-15T13:33:48.354Z,39.30
2019-06-15T13:37:57.182Z,37.10
2019-06-15T13:42:06.218Z,36.20
2019-06-15T13:46:15.121Z,36.10
2019-06-15T13:50:24.051Z,37.40
2019-06-15T13:54:32.937Z,38.00
2019-06-15T13:58:41.780Z,38.00
2019-06-15T14:02:50.712Z,37.00
2019-06-15T14:06:59.513Z,38.00
2019-06-15T14:11:08.325Z,38.30
2019-06-15T14:15:17.278Z,37.00
2019-06-15T14:19:26.108Z,37.70
2019-06-15T14:23:34.932Z,35.60
2019-06-15T14:27:43.796Z,34.90
2019-06-15T14:31:52.631Z,34.60
2019-06-15T14:36:01.580Z,35.80
2019-06-15T14:40:11.963Z,36.80
2019-06-15T14:44:21.036Z,38.30
2019-06-15T14:48:30.030Z,38.50
2019-06-15T14:52:39.227Z,37.80
2019-06-15T14:56:48.036Z,37.20
2019-06-15T15:00:57.246Z,38.00
2019-06-15T15:05:06.984Z,38.80
2019-06-15T15:09:17.041Z,39.00
2019-06-15T15:13:26.421Z,40.00
2019-06-15T15:17:37.244Z,38.40
2019-06-15T15:21:46.217Z,37.10
2019-06-15T15:25:57.420Z,37.40
2019-06-15T15:30:06.326Z,36.80
2019-06-15T15:34:17.387Z,36.60
2019-06-15T15:38:26.515Z,35.20
2019-06-15T15:42:37.135Z,35.10
2019-06-15T15:46:46.450Z,36.30
2019-06-15T15:50:57.381Z,35.60
2019-06-15T15:55:06.728Z,37.00
2019-06-15T15:59:16.291Z,37.10
2019-06-15T16:03:26.472Z,37.00
2019-06-15T16:07:36.397Z,37.00
2019-06-15T16:11:46.366Z,36.70
2019-06-15T16:15:55.418Z,38.30
2019-06-15T16:20:06.581Z,38.20
2019-06-15T16:24:16.637Z,39.10
2019-06-15T16:28:26.366Z,39.20
2019-06-15T16:32:37.218Z,38.70
2019-06-15T16:36:47.062Z,39.10
2019-06-15T16:40:56.201Z,39.40
2019-06-15T16:45:06.804Z,39.90
2019-06-15T16:49:19.840Z,39.70
2019-06-15T16:53:26.687Z,38.80
2019-06-15T16:57:37.038Z,39.40
2019-06-15T17:01:45.942Z,40.60
2019-06-15T17:05:57.200Z,40.70
2019-06-15T17:10:06.359Z,40.60
2019-06-15T17:14:17.166Z,39.20
2019-06-15T17:18:26.277Z,37.00
2019-06-15T17:22:37.857Z,35.00
2019-06-15T17:26:46.852Z,33.30
2019-06-15T17:30:56.654Z,33.70
2019-06-15T17:35:06.178Z,36.40
2019-06-15T17:39:17.109Z,38.40
2019-06-15T17:43:26.867Z,40.00
2019-06-15T17:47:35.920Z,41.30
2019-06-15T17:51:46.133Z,42.60
2019-06-15T17:55:56.083Z,43.30
2019-06-15T18:00:07.181Z,40.70
2019-06-15T18:04:16.493Z,37.30
2019-06-15T18:08:26.895Z,36.90
2019-06-15T18:12:35.866Z,39.30
2019-06-15T18:16:47.103Z,41.30
2019-06-15T18:20:56.831Z,43.50
2019-06-15T18:25:06.432Z,44.60
2019-06-15T18:29:16.781Z,46.10
2019-06-15T18:33:27.302Z,47.80
2019-06-15T18:37:37.113Z,48.50
2019-06-15T18:41:46.423Z,49.10
2019-06-15T18:45:56.808Z,49.90
2019-06-15T18:50:07.576Z,50.50
2019-06-15T18:54:16.547Z,50.90
2019-06-15T18:58:26.199Z,51.50
2019-06-15T19:02:36.244Z,51.90
2019-06-15T19:06:46.753Z,52.30
2019-06-15T19:10:56.355Z,52.80
2019-06-15T19:15:07.352Z,53.50
2019-06-15T19:19:17.057Z,54.50
2019-06-15T19:23:26.751Z,55.60
2019-06-15T19:27:36.619Z,56.80
2019-06-15T19:31:46.799Z,57.50
2019-06-15T19:35:56.959Z,58.20
2019-06-15T19:40:07.231Z,58.70
2019-06-15T19:44:16.485Z,59.70
2019-06-15T19:48:26.849Z,60.10
2019-06-15T19:52:36.123Z,61.10
2019-06-15T19:56:46.652Z,62.30
2019-06-15T20:00:56.469Z,63.00
2019-06-15T20:05:06.619Z,64.20
2019-06-15T20:09:15.384Z,64.80
2019-06-15T20:13:24.220Z,65.70
2019-06-15T20:17:33.054Z,66.50
2019-06-15T20:21:41.813Z,66.70
2019-06-15T20:25:50.570Z,67.80
2019-06-15T20:29:59.698Z,68.30
2019-06-15T20:34:08.526Z,69.20
2019-06-15T20:38:17.375Z,70.10
2019-06-15T20:42:27.020Z,70.10
2019-06-15T20:46:37.123Z,70.60
2019-06-15T20:50:47.127Z,70.60
2019-06-15T20:54:57.084Z,70.70
2019-06-15T20:59:06.422Z,71.30
2019-06-15T21:03:16.140Z,71.80
2019-06-15T21:07:26.939Z,72.50
2019-06-15T21:11:36.189Z,72.90
2019-06-15T21:15:47.379Z,73.00
2019-06-15T21:19:56.623Z,73.20
2019-06-15T21:24:06.383Z,73.30
2019-06-15T21:28:16.908Z,73.70
2019-06-15T21:32:26.280Z,73.90
2019-06-15T21:36:37.384Z,74.20
2019-06-15T21:40:47.487Z,74.30
2019-06-15T21:44:56.253Z,74.70
2019-06-15T21:49:07.251Z,74.70
2019-06-15T21:53:16.510Z,75.10
2019-06-15T21:57:26.880Z,75.50
2019-06-15T22:01:37.470Z,75.50
2019-06-15T22:06:02.118Z,75.50
2019-06-15T22:09:57.526Z,75.70
2019-06-15T22:14:06.460Z,75.90
2019-06-15T22:18:16.431Z,76.30
2019-06-15T22:22:27.257Z,77.10
2019-06-15T22:26:35.818Z,77.50
2019-06-15T22:30:46.271Z,77.80
2019-06-15T22:34:56.332Z,78.80
2019-06-15T22:39:06.612Z,78.60
2019-06-15T22:43:16.772Z,78.70
2019-06-15T22:47:27.078Z,78.90
2019-06-15T22:51:36.810Z,78.90
2019-06-15T22:55:46.337Z,78.80
2019-06-15T22:59:56.760Z,79.10
2019-06-15T23:04:06.603Z,79.00
2019-06-15T23:08:16.367Z,79.60
2019-06-15T23:12:25.174Z,79.60
2019-06-15T23:16:36.657Z,79.10
2019-06-15T23:20:46.196Z,79.10
2019-06-15T23:24:56.328Z,79.50
2019-06-15T23:29:06.929Z,80.10
2019-06-15T23:33:17.273Z,79.70
2019-06-15T23:37:26.756Z,80.20
2019-06-15T23:41:36.258Z,80.40
2019-06-15T23:45:46.811Z,80.50
2019-06-15T23:49:56.495Z,80.60
2019-06-15T23:54:05.369Z,81.50
2019-06-15T23:58:14.123Z,81.80
